createdAt,value
2023-06-22T00:03:59.729Z,463.83
2023-06-22T00:09:02.850Z,492.53
2023-06-22T00:14:06.094Z,508.37
2023-06-22T00:19:08.593Z,508.13
2023-06-22T00:24:10.746Z,508.57
2023-06-22T00:29:12.977Z,504.47
2023-06-22T00:34:15.239Z,468.53
2023-06-22T00:39:18.013Z,410.23
2023-06-22T00:44:20.217Z,404.83
2023-06-22T00:49:22.803Z,407.50
2023-06-22T00:54:26.830Z,401.33
2023-06-22T00:59:29.986Z,454.00
2023-06-22T01:04:40.173Z,473.40
2023-06-22T01:10:05.929Z,499.50
2023-06-22T01:15:22.254Z,490.40
2023-06-22T01:20:28.579Z,406.27
2023-06-22T01:25:46.056Z,482.83
2023-06-22T01:31:02.133Z,411.50
2023-06-22T01:36:07.792Z,488.47
2023-06-22T01:41:11.569Z,489.73
2023-06-22T01:46:16.500Z,470.90
2023-06-22T01:51:18.853Z,405.13
2023-06-22T01:56:21.118Z,398.17
2023-06-22T02:01:32.879Z,393.50
2023-06-22T02:06:40.376Z,479.90
2023-06-22T02:11:47.217Z,490.97
2023-06-22T02:16:52.529Z,423.27
2023-06-22T02:21:54.893Z,403.77
2023-06-22T02:26:57.232Z,411.53
2023-06-22T02:31:59.737Z,451.00
2023-06-22T02:37:03.838Z,481.90
2023-06-22T02:42:06.110Z,478.13
2023-06-22T02:47:08.613Z,491.47
2023-06-22T02:52:10.733Z,478.00
2023-06-22T02:57:15.075Z,496.13
2023-06-22T03:02:19.759Z,391.50
2023-06-22T03:07:22.214Z,387.47
2023-06-22T03:12:26.754Z,390.23
2023-06-22T03:17:30.972Z,462.67
2023-06-22T03:22:33.198Z,471.93
2023-06-22T03:27:35.314Z,508.80
2023-06-22T03:32:37.615Z,483.87
2023-06-22T03:37:41.893Z,472.07
2023-06-22T03:42:44.060Z,493.67
2023-06-22T03:47:46.297Z,452.97
2023-06-22T03:52:48.678Z,397.87
2023-06-22T03:57:50.925Z,423.13
2023-06-22T04:02:53.278Z,421.13
2023-06-22T04:07:55.799Z,413.13
2023-06-22T04:12:58.184Z,422.20
2023-06-22T04:18:00.321Z,460.57
2023-06-22T04:23:02.475Z,473.63
2023-06-22T04:28:05.481Z,493.40
2023-06-22T04:33:07.700Z,496.87
2023-06-22T04:38:10.300Z,508.93
2023-06-22T04:43:12.423Z,496.00
2023-06-22T04:48:17.446Z,505.43
2023-06-22T04:53:19.765Z,405.43
2023-06-22T04:58:22.644Z,413.90
2023-06-22T05:03:27.601Z,402.50
2023-06-22T05:08:29.934Z,454.57
2023-06-22T05:13:32.494Z,500.63
2023-06-22T05:18:36.312Z,496.07
2023-06-22T05:23:38.531Z,505.53
2023-06-22T05:28:40.619Z,516.33
2023-06-22T05:33:45.248Z,517.37
2023-06-22T05:38:47.621Z,445.57
2023-06-22T05:43:49.785Z,405.70
2023-06-22T05:48:51.908Z,434.40
2023-06-22T05:53:54.082Z,409.87
2023-06-22T05:58:56.467Z,423.17
2023-06-22T06:03:58.756Z,435.73
2023-06-22T06:09:01.110Z,476.30
2023-06-22T06:14:03.287Z,502.87
2023-06-22T06:19:05.410Z,509.53
2023-06-22T06:24:07.952Z,498.90
2023-06-22T06:29:10.189Z,523.73
2023-06-22T06:34:12.321Z,508.80
2023-06-22T06:39:14.554Z,512.33
2023-06-22T06:44:16.776Z,449.97
2023-06-22T06:49:18.888Z,430.67
2023-06-22T06:54:22.012Z,424.13
2023-06-22T06:59:24.226Z,439.77
2023-06-22T07:04:26.780Z,441.77
2023-06-22T07:09:29.316Z,449.67
2023-06-22T07:14:32.808Z,511.47
2023-06-22T07:19:35.323Z,524.40
2023-06-22T07:24:38.381Z,531.60
2023-06-22T07:29:43.580Z,535.77
2023-06-22T07:34:45.792Z,503.13
2023-06-22T07:39:48.022Z,469.67
2023-06-22T07:44:52.245Z,453.67
2023-06-22T07:49:56.118Z,479.00
2023-06-22T07:54:58.529Z,501.07
2023-06-22T08:00:17.129Z,527.40
2023-06-22T08:05:22.401Z,487.57
2023-06-22T08:10:25.872Z,481.30
2023-06-22T08:15:30.027Z,491.50
2023-06-22T08:20:32.692Z,556.63
2023-06-22T08:25:35.938Z,574.87
2023-06-22T08:30:38.355Z,578.73
2023-06-22T08:35:40.587Z,579.00
2023-06-22T08:40:43.248Z,605.10
2023-06-22T08:45:45.438Z,581.17
2023-06-22T08:50:48.053Z,531.33
2023-06-22T08:55:52.118Z,539.93
2023-06-22T09:00:54.347Z,530.53
2023-06-22T09:05:57.206Z,552.80
2023-06-22T09:10:59.423Z,590.07
2023-06-22T09:16:01.717Z,643.73
2023-06-22T09:21:04.230Z,645.00
2023-06-22T09:26:07.540Z,644.70
2023-06-22T09:31:09.894Z,568.03
2023-06-22T09:36:12.020Z,516.00
2023-06-22T09:41:14.202Z,508.47
2023-06-22T09:46:19.249Z,491.73
2023-06-22T09:51:22.971Z,534.80
2023-06-22T09:56:26.760Z,462.53
2023-06-22T10:01:30.278Z,493.83
2023-06-22T10:06:32.399Z,533.67
2023-06-22T10:11:36.304Z,533.33
2023-06-22T10:16:38.741Z,546.97
2023-06-22T10:21:41.028Z,538.67
2023-06-22T10:26:43.177Z,568.20
2023-06-22T10:31:45.350Z,549.80
2023-06-22T10:36:49.881Z,478.37
2023-06-22T10:41:52.204Z,455.83
2023-06-22T10:46:54.360Z,492.70
2023-06-22T10:51:56.834Z,501.77
2023-06-22T10:56:59.119Z,527.53
2023-06-22T11:02:01.392Z,544.67
2023-06-22T11:07:04.182Z,581.43
2023-06-22T11:12:07.539Z,591.03
2023-06-22T11:17:09.644Z,584.67
2023-06-22T11:22:12.064Z,572.53
2023-06-22T11:27:14.370Z,583.00
2023-06-22T11:32:16.686Z,546.93
2023-06-22T11:37:18.840Z,492.73
2023-06-22T11:42:21.017Z,481.53
2023-06-22T11:47:23.201Z,515.90
2023-06-22T11:52:25.643Z,513.60
2023-06-22T11:57:27.974Z,497.67
2023-06-22T12:02:30.354Z,539.93
2023-06-22T12:07:32.687Z,590.53
2023-06-22T12:12:34.836Z,614.03
2023-06-22T12:17:37.173Z,604.60
2023-06-22T12:22:39.322Z,625.30
2023-06-22T12:27:41.429Z,636.33
2023-06-22T12:32:44.284Z,636.13
2023-06-22T12:37:46.486Z,619.50
2023-06-22T12:42:48.673Z,571.37
2023-06-22T12:47:51.411Z,558.60
2023-06-22T12:52:53.902Z,584.23
2023-06-22T12:57:56.595Z,568.83
2023-06-22T13:02:59.078Z,555.60
2023-06-22T13:08:01.196Z,597.30
2023-06-22T13:13:03.437Z,602.80
2023-06-22T13:18:05.734Z,625.07
2023-06-22T13:23:08.033Z,617.57
2023-06-22T13:28:23.610Z,643.73
2023-06-22T13:33:29.914Z,607.23
2023-06-22T13:38:33.425Z,652.63
2023-06-22T13:43:35.595Z,689.20
2023-06-22T13:48:37.738Z,690.17
2023-06-22T13:53:39.912Z,711.57
2023-06-22T13:58:42.169Z,712.73
2023-06-22T14:03:46.831Z,720.40
2023-06-22T14:08:48.909Z,641.43
2023-06-22T14:13:51.171Z,645.97
2023-06-22T14:18:55.114Z,634.63
2023-06-22T14:23:59.178Z,639.47
2023-06-22T14:29:01.362Z,685.07
2023-06-22T14:34:04.831Z,710.73
2023-06-22T14:39:06.992Z,711.80
2023-06-22T14:44:09.456Z,699.97
2023-06-22T14:49:11.764Z,732.93
2023-06-22T14:54:13.951Z,745.47
2023-06-22T14:59:16.115Z,753.87
2023-06-22T15:04:18.327Z,708.03
2023-06-22T15:09:20.678Z,675.73
2023-06-22T15:14:23.011Z,674.37
2023-06-22T15:19:25.420Z,662.87
2023-06-22T15:24:27.903Z,671.07
2023-06-22T15:29:35.310Z,700.20
2023-06-22T15:34:37.655Z,735.80
2023-06-22T15:39:39.879Z,753.93
2023-06-22T15:44:42.100Z,735.17
2023-06-22T15:49:44.476Z,755.60
2023-06-22T15:54:47.454Z,738.33
2023-06-22T15:59:49.671Z,696.93
2023-06-22T16:04:51.858Z,689.23
2023-06-22T16:09:54.445Z,672.97
2023-06-22T16:14:57.125Z,688.10
2023-06-22T16:20:00.853Z,690.40
2023-06-22T16:25:03.408Z,721.53
2023-06-22T16:30:08.190Z,721.87
2023-06-22T16:35:10.668Z,722.37
2023-06-22T16:40:13.429Z,731.90
2023-06-22T16:45:19.017Z,736.13
2023-06-22T16:50:21.258Z,660.33
2023-06-22T16:55:25.793Z,662.10
2023-06-22T17:00:28.389Z,665.10
2023-06-22T17:05:32.895Z,701.30
2023-06-22T17:10:35.478Z,709.80
2023-06-22T17:15:40.275Z,708.17
2023-06-22T17:20:42.392Z,716.43
2023-06-22T17:25:47.781Z,717.33
2023-06-22T17:31:11.532Z,640.53
2023-06-22T17:36:15.159Z,703.77
2023-06-22T17:41:17.800Z,674.53
2023-06-22T17:46:20.276Z,632.30
2023-06-22T17:56:53.464Z,947.87
2023-06-22T18:01:55.695Z,874.57
2023-06-22T18:06:58.285Z,826.97
2023-06-22T18:12:04.972Z,852.37
2023-06-22T18:17:07.927Z,845.57
2023-06-22T18:22:10.188Z,702.43
2023-06-22T18:27:15.937Z,809.73
2023-06-22T18:32:18.442Z,770.33
2023-06-22T18:37:21.582Z,750.40
2023-06-22T18:42:24.062Z,764.70
2023-06-22T18:47:32.825Z,712.70
2023-06-22T18:52:40.009Z,820.47
2023-06-22T18:57:42.156Z,891.40
2023-06-22T19:02:49.992Z,874.70
2023-06-22T19:07:57.457Z,825.83
2023-06-22T19:13:31.291Z,865.77
2023-06-22T19:18:41.144Z,932.17
2023-06-22T19:23:46.131Z,951.90
2023-06-22T19:28:55.588Z,762.47
2023-06-22T19:34:07.283Z,733.77
2023-06-22T19:39:09.665Z,720.40
2023-06-22T19:44:11.952Z,732.23
2023-06-22T19:49:18.462Z,752.10
2023-06-22T19:54:20.687Z,697.30
2023-06-22T19:59:25.296Z,727.53
2023-06-22T20:04:28.123Z,741.07
2023-06-22T20:09:30.442Z,733.20
2023-06-22T20:14:36.104Z,795.17
2023-06-22T20:19:42.524Z,836.80
2023-06-22T20:24:46.738Z,918.07
2023-06-22T20:29:49.685Z,853.33
2023-06-22T20:34:51.891Z,853.07
2023-06-22T20:39:54.020Z,827.87
2023-06-22T20:44:56.532Z,883.33
2023-06-22T20:50:00.529Z,892.57
2023-06-22T20:55:02.838Z,924.53
2023-06-22T21:00:09.293Z,949.17
2023-06-22T21:05:13.464Z,933.07
2023-06-22T21:10:16.206Z,981.20
2023-06-22T21:15:18.840Z,933.03
2023-06-22T21:20:20.988Z,910.40
2023-06-22T21:25:23.199Z,868.67
2023-06-22T21:30:25.400Z,907.93
2023-06-22T21:35:28.680Z,885.47
2023-06-22T21:40:30.968Z,906.30
2023-06-22T21:45:33.318Z,916.60
2023-06-22T21:50:38.302Z,894.10
2023-06-22T21:55:40.471Z,864.83
2023-06-22T22:00:42.710Z,884.33
2023-06-22T22:05:46.748Z,923.70
2023-06-22T22:10:49.219Z,867.03
2023-06-22T22:15:52.354Z,840.43
2023-06-22T22:20:54.520Z,867.53
2023-06-22T22:25:57.216Z,850.73
2023-06-22T22:31:00.601Z,857.37
2023-06-22T22:36:06.529Z,861.37
2023-06-22T22:41:08.740Z,879.67
2023-06-22T22:46:10.925Z,892.30
2023-06-22T22:51:13.104Z,891.17
2023-06-22T22:56:16.018Z,914.97
2023-06-22T23:01:18.199Z,882.77
2023-06-22T23:06:20.407Z,847.97
2023-06-22T23:11:29.197Z,845.07
2023-06-22T23:16:31.338Z,854.67
2023-06-22T23:21:34.186Z,874.57
2023-06-22T23:26:36.287Z,863.00
2023-06-22T23:31:38.472Z,851.00
2023-06-22T23:36:40.619Z,811.03
2023-06-22T23:41:43.497Z,854.53
2023-06-22T23:46:45.622Z,925.93
2023-06-22T23:51:47.738Z,818.20
2023-06-22T23:56:53.916Z,781.33
